Oldtown, Maryland
Current Conditions -  °F | °C
As of 11:07 AM on Thursday 29 Jan 2015 (Local Time) from KCBE Reporting Station
Broken Clouds Broken Clouds  
Wind Chill: 25°   Ceiling: 8500
Heat Index: 25°   Visibility: 10mi
Dew Point: 14°   Wind: 0mph
Humidity: 64%   Direction: NA
Pressure: 30.18"   Gusts: NA
Location:  39.54°N, 78.61°W
Report Text: KCBE 291607Z AUTO 00000KT 10SM SCT075 BKN085 M04/M10 A3018 RMK AO1
Loading
Personal Weather Stations






























Interactive Weather Map New forecast layout! Learn more

10-Day Weather Forecast

Advertisements
Track Severe Weather on mobile